Time;durP1;ratioP1;P1;durP2;ratioP2;P2;SDS_P1;SDS_P2;PMS_P1;PMS_P2;Temp;Humidity;BMP_temperature;BMP_pressure;BME280_temperature;BME280_humidity;BME280_pressure;Samples;Min_cycle;Max_cycle;Signal;HPM_P1;HPM_P2
2022/11/10 00:00:51;;;;;;;74.57;33.17;;;11.20;99.90;;;;;;4996724;28;20037;-76
2022/11/10 00:03:17;;;;;;;81.18;34.58;;;11.20;99.90;;;;;;4994677;28;20025;-80
2022/11/10 00:05:42;;;;;;;83.72;33.88;;;11.20;99.90;;;;;;5002578;28;20025;-76
2022/11/10 00:08:10;;;;;;;84.55;34.22;;;11.20;99.90;;;;;;4996035;28;21366;-77
2022/11/10 00:10:56;;;;;;;85.05;33.63;;;11.20;99.90;;;;;;5001822;28;20033;-76
2022/11/10 00:13:27;;;;;;;71.22;30.95;;;11.20;99.90;;;;;;5008434;28;20060;-77
2022/11/10 00:18:38;;;;;;;71.80;33.05;;;11.20;99.90;;;;;;5006809;28;21755;-76
2022/11/10 00:21:09;;;;;;;74.95;32.20;;;11.20;99.90;;;;;;4997103;28;20036;-77
2022/11/10 00:23:35;;;;;;;69.05;31.70;;;11.20;99.90;;;;;;4992211;28;20037;-77
2022/11/10 00:26:00;;;;;;;61.42;30.48;;;11.10;99.90;;;;;;5001146;28;20083;-78
2022/11/10 00:28:29;;;;;;;64.65;30.05;;;11.20;99.90;;;;;;5003280;28;20041;-77
2022/11/10 00:30:55;;;;;;;60.75;30.75;;;11.20;99.90;;;;;;4999497;28;20026;-83
2022/11/10 00:33:21;;;;;;;58.25;30.05;;;11.20;99.90;;;;;;4996115;28;20030;-82
2022/11/10 00:35:46;;;;;;;59.53;31.27;;;11.20;99.90;;;;;;5010952;28;20022;-84
2022/11/10 00:38:12;;;;;;;62.42;32.92;;;11.20;99.90;;;;;;5002090;28;20056;-80
2022/11/10 00:40:37;;;;;;;61.55;31.17;;;11.20;99.90;;;;;;5000682;28;20026;-77
2022/11/10 00:43:03;;;;;;;58.95;29.20;;;11.30;99.90;;;;;;5007698;28;20573;-81
2022/11/10 00:45:29;;;;;;;62.25;29.23;;;11.30;99.90;;;;;;5000289;28;20037;-80
2022/11/10 00:47:54;;;;;;;52.40;27.95;;;11.30;99.90;;;;;;5001750;28;20037;-76
2022/11/10 00:50:20;;;;;;;62.45;29.92;;;11.20;99.90;;;;;;4998366;28;20032;-77
2022/11/10 00:52:45;;;;;;;58.38;29.67;;;11.30;99.90;;;;;;4995522;28;20041;-81
2022/11/10 00:55:11;;;;;;;56.78;29.95;;;11.30;99.90;;;;;;4998337;28;20326;-70
2022/11/10 00:57:37;;;;;;;58.33;28.73;;;11.30;99.90;;;;;;5004049;28;20136;-73
2022/11/10 01:00:03;;;;;;;54.58;28.67;;;11.30;99.90;;;;;;4997333;28;20117;-75
2022/11/10 01:02:29;;;;;;;54.45;29.13;;;11.30;99.90;;;;;;5001471;28;20147;-74
2022/11/10 01:04:54;;;;;;;51.95;28.20;;;11.30;99.90;;;;;;4997637;28;20479;-74
2022/11/10 01:07:20;;;;;;;55.35;28.77;;;11.30;99.90;;;;;;4999111;28;20329;-75
2022/11/10 01:09:45;;;;;;;48.85;28.20;;;11.30;99.90;;;;;;5003173;28;20065;-75
2022/11/10 01:12:11;;;;;;;53.28;28.13;;;11.30;99.90;;;;;;4997862;28;20084;-76
2022/11/10 01:14:36;;;;;;;52.17;28.15;;;11.30;99.90;;;;;;4999756;28;20030;-79
2022/11/10 01:24:58;;;;;;;50.75;27.25;;;11.30;99.90;;;;;;5011530;28;20206;-75
2022/11/10 01:27:24;;;;;;;53.83;28.10;;;11.30;99.90;;;;;;4972890;28;20061;-78
2022/11/10 01:29:49;;;;;;;48.42;27.35;;;11.20;99.90;;;;;;4955153;28;20068;-78
2022/11/10 01:32:15;;;;;;;54.47;28.58;;;11.20;99.90;;;;;;4975173;28;20070;-75
2022/11/10 01:34:40;;;;;;;61.72;29.88;;;11.30;99.90;;;;;;4976866;28;20071;-76
2022/11/10 01:37:06;;;;;;;55.63;28.77;;;11.20;99.90;;;;;;4973036;28;20075;-77
2022/11/10 01:39:31;;;;;;;52.58;28.58;;;11.20;99.90;;;;;;4972434;28;20054;-77
2022/11/10 01:41:57;;;;;;;55.55;27.92;;;11.30;99.90;;;;;;4959629;28;20038;-77
2022/11/10 01:44:24;;;;;;;49.83;28.08;;;11.30;99.90;;;;;;4973731;28;20065;-74
2022/11/10 01:46:50;;;;;;;55.67;28.70;;;11.30;99.90;;;;;;4977468;28;20105;-77
2022/11/10 01:49:21;;;;;;;60.97;29.80;;;11.30;99.90;;;;;;4979687;28;20570;-77
2022/11/10 01:51:52;;;;;;;56.58;29.38;;;11.30;99.90;;;;;;4970437;28;20043;-77
2022/11/10 01:54:25;;;;;;;56.65;28.20;;;11.30;99.90;;;;;;4981849;28;20045;-77
2022/11/10 01:56:54;;;;;;;60.03;29.55;;;11.30;99.90;;;;;;4977854;28;20538;-77
2022/11/10 01:59:27;;;;;;;54.83;27.90;;;11.30;99.90;;;;;;4985431;28;20066;-77
2022/11/10 02:01:57;;;;;;;51.75;26.88;;;11.30;99.90;;;;;;4978882;28;20129;-76
2022/11/10 02:04:24;;;;;;;48.75;27.67;;;11.20;99.90;;;;;;4972088;28;20029;-75
2022/11/10 02:06:50;;;;;;;51.70;27.30;;;11.30;99.90;;;;;;4984101;28;20405;-77
2022/11/10 02:09:17;;;;;;;51.80;27.17;;;11.30;99.90;;;;;;4981375;28;20034;-75
2022/11/10 02:11:43;;;;;;;56.75;28.05;;;11.30;99.90;;;;;;4981174;28;20123;-75
2022/11/10 02:14:09;;;;;;;50.75;26.15;;;11.30;99.90;;;;;;4974077;28;21293;-75
2022/11/10 02:16:36;;;;;;;56.67;27.67;;;11.30;99.90;;;;;;4975351;28;20065;-75
2022/11/10 02:19:20;;;;;;;53.47;27.73;;;11.30;99.90;;;;;;4973327;28;20163;-75
2022/11/10 02:21:45;;;;;;;50.13;26.73;;;11.30;99.90;;;;;;4979619;28;20038;-75
2022/11/10 02:24:11;;;;;;;47.70;25.70;;;11.30;99.90;;;;;;4977613;28;20128;-76
2022/11/10 02:26:43;;;;;;;55.63;27.33;;;11.30;99.90;;;;;;4963779;28;20050;-75
2022/11/10 02:29:08;;;;;;;56.45;28.98;;;11.40;99.90;;;;;;4984756;28;20042;-75
2022/11/10 02:31:34;;;;;;;54.42;27.92;;;11.30;99.90;;;;;;4963272;28;20172;-76
2022/11/10 02:33:59;;;;;;;47.45;27.35;;;11.30;99.90;;;;;;4979020;28;20126;-75
2022/11/10 02:36:25;;;;;;;46.97;26.45;;;11.30;99.90;;;;;;4983556;28;20955;-75
2022/11/10 02:38:51;;;;;;;56.22;28.13;;;11.30;99.90;;;;;;4978555;28;20045;-75
2022/11/10 02:41:16;;;;;;;56.25;28.00;;;11.30;99.90;;;;;;4984118;28;20475;-75
2022/11/10 02:43:42;;;;;;;47.15;26.52;;;11.40;99.90;;;;;;4981703;28;20037;-76
2022/11/10 02:46:08;;;;;;;60.33;29.08;;;11.40;99.90;;;;;;4980512;28;20045;-76
2022/11/10 02:48:33;;;;;;;51.80;28.48;;;11.30;99.90;;;;;;4979705;28;20045;-75
2022/11/10 02:50:59;;;;;;;55.70;27.25;;;11.40;99.90;;;;;;4976192;28;20053;-76
2022/11/10 02:53:24;;;;;;;49.45;25.83;;;11.40;99.90;;;;;;4983449;28;20109;-76
2022/11/10 02:55:50;;;;;;;54.35;26.90;;;11.30;99.90;;;;;;4979011;28;20096;-76
2022/11/10 02:58:15;;;;;;;54.47;26.80;;;11.40;99.90;;;;;;4978444;28;20104;-76
2022/11/10 03:00:41;;;;;;;60.40;27.73;;;11.30;99.90;;;;;;4982466;28;20787;-75
2022/11/10 03:03:08;;;;;;;57.95;27.38;;;11.30;99.90;;;;;;4978729;28;20042;-76
2022/11/10 03:05:34;;;;;;;58.80;25.58;;;11.30;99.90;;;;;;4982958;28;20092;-76
2022/11/10 03:08:01;;;;;;;51.92;25.75;;;11.20;99.90;;;;;;4980763;28;20045;-76
2022/11/10 03:10:28;;;;;;;52.30;27.77;;;11.30;99.90;;;;;;4984167;28;20038;-76
2022/11/10 03:12:55;;;;;;;55.20;27.00;;;11.30;99.90;;;;;;4981914;28;20042;-77
2022/11/10 03:15:22;;;;;;;51.03;26.15;;;11.30;99.90;;;;;;4984458;28;20034;-77
2022/11/10 03:17:48;;;;;;;52.92;26.33;;;11.40;99.90;;;;;;4982745;28;20848;-77
2022/11/10 03:20:14;;;;;;;51.55;24.77;;;11.40;99.90;;;;;;4985617;28;20045;-77
2022/11/10 03:22:39;;;;;;;54.63;26.58;;;11.40;99.90;;;;;;4979895;28;20526;-77
2022/11/10 03:25:06;;;;;;;48.85;27.40;;;11.40;99.90;;;;;;4984232;28;20030;-77
2022/11/10 03:27:31;;;;;;;47.00;25.33;;;11.40;99.90;;;;;;4999207;28;20111;-76
2022/11/10 03:29:57;;;;;;;45.63;26.45;;;11.40;99.90;;;;;;5003839;28;20395;-77
2022/11/10 03:32:23;;;;;;;46.38;25.23;;;11.50;99.90;;;;;;5002654;28;20053;-77
2022/11/10 03:34:48;;;;;;;46.50;25.42;;;11.50;99.90;;;;;;5003087;28;20033;-77
2022/11/10 03:37:14;;;;;;;43.78;26.10;;;11.50;99.90;;;;;;4991381;28;20049;-77
2022/11/10 03:39:39;;;;;;;49.55;26.20;;;11.50;99.90;;;;;;5003795;28;20026;-77
2022/11/10 03:42:05;;;;;;;48.25;26.08;;;11.40;99.90;;;;;;4999120;28;20041;-77
2022/11/10 03:44:30;;;;;;;45.15;24.15;;;11.50;99.90;;;;;;5001829;28;20042;-77
2022/11/10 03:46:56;;;;;;;45.42;24.58;;;11.50;99.90;;;;;;5000832;28;20054;-77
2022/11/10 03:49:22;;;;;;;39.85;23.38;;;11.40;99.90;;;;;;4998868;28;20045;-75
2022/11/10 03:51:47;;;;;;;46.17;25.40;;;11.40;99.90;;;;;;4996158;28;20041;-76
2022/11/10 03:54:13;;;;;;;48.13;25.23;;;11.40;99.90;;;;;;4998940;28;20080;-76
2022/11/10 03:56:38;;;;;;;48.00;25.85;;;11.40;99.90;;;;;;4995096;28;20041;-76
2022/11/10 03:59:04;;;;;;;49.60;25.98;;;11.40;99.90;;;;;;4987642;28;22442;-76
2022/11/10 04:01:30;;;;;;;47.78;25.98;;;11.40;99.90;;;;;;4995907;28;20738;-76
2022/11/10 04:03:55;;;;;;;45.42;25.30;;;11.50;99.90;;;;;;4990161;28;20037;-76
2022/11/10 04:09:06;;;;;;;47.92;25.85;;;11.60;99.90;;;;;;4999963;28;20533;-77
2022/11/10 04:17:01;;;;;;;46.17;25.63;;;11.50;99.90;;;;;;5000368;28;20540;-77
2022/11/10 04:19:27;;;;;;;49.65;27.65;;;11.50;99.90;;;;;;5000070;28;20041;-77
2022/11/10 04:21:53;;;;;;;45.20;27.38;;;11.50;99.90;;;;;;5000324;28;20168;-77
2022/11/10 04:24:19;;;;;;;48.83;26.83;;;11.50;99.90;;;;;;4997462;28;20045;-77
2022/11/10 04:26:46;;;;;;;51.00;29.05;;;11.50;99.90;;;;;;5002404;28;21084;-77
2022/11/10 04:29:13;;;;;;;49.30;28.83;;;11.50;99.90;;;;;;5000129;28;20033;-76
2022/11/10 04:31:40;;;;;;;51.25;28.85;;;11.40;99.90;;;;;;4999458;28;20041;-76
2022/11/10 04:34:11;;;;;;;37.15;22.40;;;11.40;99.90;;;;;;4999725;28;20022;-75
2022/11/10 04:36:39;;;;;;;33.97;21.23;;;11.40;99.90;;;;;;5001137;28;20048;-75
2022/11/10 04:39:06;;;;;;;35.10;20.25;;;11.40;99.90;;;;;;4997747;28;20124;-76
2022/11/10 04:41:31;;;;;;;37.30;21.50;;;11.40;99.90;;;;;;5004540;28;20120;-76
2022/11/10 04:43:58;;;;;;;30.92;19.92;;;11.50;99.90;;;;;;4999402;28;20037;-77
2022/11/10 04:46:29;;;;;;;33.97;20.77;;;11.50;99.90;;;;;;4978526;28;20065;-77
2022/11/10 04:48:56;;;;;;;33.55;20.15;;;11.40;99.90;;;;;;5000293;28;20046;-78
2022/11/10 04:51:31;;;;;;;32.30;20.30;;;11.40;99.90;;;;;;5002202;28;20798;-78
2022/11/10 04:53:56;;;;;;;51.90;30.50;;;11.40;99.90;;;;;;5000039;28;20037;-77
2022/11/10 04:56:23;;;;;;;43.83;26.83;;;11.30;99.90;;;;;;4998203;28;21101;-77
2022/11/10 04:58:49;;;;;;;38.72;22.75;;;11.30;99.90;;;;;;4998742;28;20042;-77
2022/11/10 05:01:18;;;;;;;33.65;21.05;;;11.30;99.90;;;;;;5001317;28;20041;-77
2022/11/10 05:03:45;;;;;;;38.35;20.10;;;11.20;99.90;;;;;;5001238;28;20132;-77
2022/11/10 05:06:10;;;;;;;33.78;20.55;;;11.20;99.90;;;;;;4998241;28;20037;-77
2022/11/10 05:08:37;;;;;;;27.75;19.10;;;11.30;99.90;;;;;;5000432;28;20040;-77
2022/11/10 05:11:03;;;;;;;30.50;19.50;;;11.30;99.90;;;;;;5005633;28;20391;-77
2022/11/10 05:13:29;;;;;;;29.27;18.55;;;11.30;99.90;;;;;;5000688;28;20854;-76
2022/11/10 05:15:55;;;;;;;25.27;17.00;;;11.30;99.90;;;;;;4998350;28;20029;-77
2022/11/10 05:18:21;;;;;;;28.27;18.17;;;11.20;99.90;;;;;;4998215;28;20140;-77
2022/11/10 05:20:46;;;;;;;27.88;17.60;;;11.20;99.90;;;;;;4998058;28;20924;-77
2022/11/10 05:25:56;;;;;;;25.80;16.33;;;11.30;99.90;;;;;;4999213;28;20056;-77
2022/11/10 05:28:22;;;;;;;26.85;16.40;;;11.30;99.90;;;;;;5003757;28;20148;-77
2022/11/10 05:30:47;;;;;;;24.40;16.30;;;11.30;99.90;;;;;;4993667;28;20030;-78
2022/11/10 05:33:13;;;;;;;30.10;17.23;;;11.30;99.90;;;;;;4997422;28;20038;-77
2022/11/10 05:35:39;;;;;;;26.17;15.88;;;11.30;99.90;;;;;;4998777;28;20028;-76
2022/11/10 05:38:05;;;;;;;19.30;14.85;;;11.30;99.90;;;;;;4997092;28;20080;-77
2022/11/10 05:40:31;;;;;;;24.35;14.75;;;11.30;99.90;;;;;;5000459;28;20116;-77
2022/11/10 05:42:57;;;;;;;21.35;14.75;;;11.30;99.90;;;;;;4992422;28;20053;-79
2022/11/10 05:45:25;;;;;;;21.02;14.40;;;11.30;99.90;;;;;;4997761;28;20025;-80
2022/11/10 05:47:51;;;;;;;21.27;14.95;;;11.30;99.90;;;;;;4999161;28;20050;-80
2022/11/10 05:50:18;;;;;;;21.98;15.60;;;11.30;99.90;;;;;;4997819;28;20552;-80
2022/11/10 05:52:46;;;;;;;24.15;14.90;;;11.20;99.90;;;;;;4994988;28;20037;-79
2022/11/10 05:55:13;;;;;;;19.70;14.88;;;11.20;99.90;;;;;;4994908;28;20444;-79
2022/11/10 05:57:45;;;;;;;21.52;14.88;;;11.20;99.90;;;;;;4998018;28;20498;-79
2022/11/10 06:00:13;;;;;;;19.20;14.18;;;11.20;99.90;;;;;;4999990;28;20068;-80
2022/11/10 06:02:38;;;;;;;22.52;14.90;;;11.20;99.90;;;;;;5001003;28;20638;-80
2022/11/10 06:05:05;;;;;;;21.40;14.80;;;11.10;99.90;;;;;;5002460;28;20105;-78
2022/11/10 06:07:30;;;;;;;19.05;13.93;;;11.10;99.90;;;;;;5005547;28;20049;-80
2022/11/10 06:09:56;;;;;;;18.25;14.20;;;11.00;99.90;;;;;;5011131;28;20057;-79
2022/11/10 06:12:23;;;;;;;22.30;15.15;;;11.00;99.90;;;;;;5004054;28;20489;-80
2022/11/10 06:14:50;;;;;;;22.02;15.35;;;10.90;99.90;;;;;;5011090;28;20030;-80
2022/11/10 06:17:16;;;;;;;18.98;14.07;;;10.90;99.90;;;;;;5009216;28;20068;-80
2022/11/10 06:19:41;;;;;;;24.75;15.52;;;11.00;99.90;;;;;;5008056;28;20107;-80
2022/11/10 06:22:07;;;;;;;20.70;15.30;;;11.00;99.90;;;;;;5012593;28;20595;-78
2022/11/10 06:24:32;;;;;;;21.00;14.95;;;11.00;99.90;;;;;;5012152;28;20610;-80
2022/11/10 06:26:58;;;;;;;21.38;16.10;;;11.00;99.90;;;;;;5010332;28;20045;-78
2022/11/10 06:29:24;;;;;;;20.88;15.82;;;11.00;99.90;;;;;;5010640;28;20079;-77
2022/11/10 06:31:49;;;;;;;20.90;15.27;;;11.00;99.90;;;;;;5012433;28;20086;-70
2022/11/10 06:34:15;;;;;;;20.02;15.05;;;11.00;99.90;;;;;;5009860;28;20038;-71
2022/11/10 06:36:40;;;;;;;20.38;15.30;;;11.00;99.90;;;;;;4988144;28;20128;-78
2022/11/10 06:39:06;;;;;;;18.05;13.63;;;11.00;99.90;;;;;;4996279;28;20050;-73
2022/11/10 06:41:32;;;;;;;27.27;18.20;;;11.00;99.90;;;;;;5000354;28;20033;-77
2022/11/10 06:43:58;;;;;;;26.20;19.08;;;11.10;99.90;;;;;;4999134;28;20129;-74
2022/11/10 06:46:24;;;;;;;37.92;22.85;;;11.20;99.90;;;;;;5002629;28;20844;-74
2022/11/10 06:48:49;;;;;;;31.05;20.05;;;11.20;99.90;;;;;;4994208;28;20038;-74
2022/11/10 06:51:15;;;;;;;38.65;24.15;;;11.20;99.90;;;;;;5002453;28;20033;-76
2022/11/10 06:53:41;;;;;;;29.92;19.23;;;11.20;99.90;;;;;;5005131;28;20507;-72
2022/11/10 06:56:06;;;;;;;31.73;20.48;;;11.10;99.90;;;;;;5001509;28;20041;-72
2022/11/10 06:58:32;;;;;;;40.30;29.63;;;11.00;99.90;;;;;;4996961;28;20462;-74
2022/11/10 07:00:59;;;;;;;33.65;24.70;;;11.00;99.90;;;;;;5002446;28;20033;-76
2022/11/10 07:03:25;;;;;;;25.40;18.52;;;11.00;99.90;;;;;;5005149;28;20037;-73
2022/11/10 07:05:51;;;;;;;26.88;15.35;;;11.00;99.90;;;;;;5000519;28;20046;-73
2022/11/10 07:08:16;;;;;;;24.27;14.52;;;11.00;99.90;;;;;;5006157;28;20025;-73
2022/11/10 07:10:44;;;;;;;20.23;14.05;;;11.00;99.90;;;;;;5002458;28;20033;-74
2022/11/10 07:13:10;;;;;;;33.65;19.63;;;11.10;99.90;;;;;;4999731;28;20037;-74
2022/11/10 07:15:36;;;;;;;22.10;15.02;;;11.20;99.90;;;;;;5001127;28;20029;-72
2022/11/10 07:18:03;;;;;;;25.63;17.65;;;11.30;99.90;;;;;;5012216;28;20045;-72
2022/11/10 07:20:30;;;;;;;46.13;25.00;;;11.30;99.90;;;;;;5013138;28;20124;-76
2022/11/10 07:23:00;;;;;;;38.33;24.77;;;11.30;99.90;;;;;;5013648;28;20404;-75
2022/11/10 07:25:28;;;;;;;32.28;22.35;;;11.40;99.90;;;;;;5009283;28;20717;-75
2022/11/10 07:28:01;;;;;;;32.22;21.55;;;11.40;99.90;;;;;;4996575;28;20037;-76
2022/11/10 07:30:28;;;;;;;31.85;20.60;;;11.50;99.90;;;;;;5000258;28;20050;-75
2022/11/10 07:33:13;;;;;;;34.65;20.08;;;11.50;99.90;;;;;;5008850;28;20049;-76
2022/11/10 07:35:40;;;;;;;36.13;21.80;;;11.60;99.90;;;;;;5009347;28;20148;-76
2022/11/10 07:38:11;;;;;;;35.67;23.52;;;11.70;99.90;;;;;;4996261;28;20132;-77
2022/11/10 07:40:37;;;;;;;36.20;23.17;;;11.80;99.90;;;;;;4993848;28;20100;-73
2022/11/10 07:43:03;;;;;;;34.08;22.83;;;11.90;99.90;;;;;;5006655;28;20091;-73
2022/11/10 07:45:30;;;;;;;30.48;19.58;;;12.00;99.90;;;;;;4991574;28;20071;-73
2022/11/10 07:48:00;;;;;;;32.33;20.65;;;12.20;99.90;;;;;;5009817;28;20026;-73
2022/11/10 07:50:26;;;;;;;36.30;22.02;;;12.40;99.90;;;;;;4996125;28;20025;-73
2022/11/10 07:52:52;;;;;;;29.92;19.65;;;12.60;99.90;;;;;;5008624;28;20588;-73
2022/11/10 07:55:17;;;;;;;29.70;20.05;;;12.70;99.90;;;;;;4994587;28;20033;-73
2022/11/10 07:57:43;;;;;;;26.17;17.73;;;12.80;99.90;;;;;;4997241;28;21638;-78
2022/11/10 08:00:11;;;;;;;26.63;18.58;;;12.90;99.90;;;;;;5009427;28;20497;-77
2022/11/10 08:02:37;;;;;;;28.73;18.67;;;13.00;99.90;;;;;;5000544;28;20498;-79
2022/11/10 08:05:03;;;;;;;27.77;16.65;;;13.10;99.90;;;;;;5004442;28;20046;-76
2022/11/10 08:07:29;;;;;;;28.42;17.08;;;13.20;99.90;;;;;;5002354;28;20025;-76
2022/11/10 08:09:55;;;;;;;29.70;17.85;;;13.20;99.90;;;;;;5009258;28;22047;-76
2022/11/10 08:12:20;;;;;;;25.48;16.77;;;13.20;99.90;;;;;;5009029;28;20594;-76
2022/11/10 08:14:46;;;;;;;28.60;17.50;;;13.10;99.90;;;;;;4997900;28;20563;-76
2022/11/10 08:17:11;;;;;;;26.98;18.17;;;13.20;99.90;;;;;;4994573;28;20033;-73
2022/11/10 08:19:37;;;;;;;38.30;20.60;;;13.30;99.90;;;;;;4988110;28;20042;-73
2022/11/10 08:22:03;;;;;;;23.55;16.33;;;13.50;99.90;;;;;;4995664;28;20038;-74
2022/11/10 08:24:28;;;;;;;26.25;16.90;;;13.60;99.90;;;;;;4996058;28;20045;-74
2022/11/10 08:26:55;;;;;;;21.80;16.05;;;13.70;99.90;;;;;;5010259;28;20079;-74
2022/11/10 08:29:20;;;;;;;23.48;15.70;;;13.90;99.90;;;;;;5013032;28;20537;-73
2022/11/10 08:31:46;;;;;;;28.95;16.95;;;14.00;99.90;;;;;;5005153;28;20046;-73
2022/11/10 08:34:11;;;;;;;21.70;15.48;;;14.00;99.90;;;;;;5002841;28;20121;-73
2022/11/10 08:36:37;;;;;;;23.95;16.00;;;14.10;99.90;;;;;;5003837;28;21774;-74
2022/11/10 08:39:03;;;;;;;20.05;14.82;;;14.10;99.90;;;;;;5010597;28;20246;-75
2022/11/10 08:41:28;;;;;;;19.40;13.70;;;14.10;99.90;;;;;;5011674;28;20064;-74
2022/11/10 08:43:54;;;;;;;20.05;14.73;;;14.10;99.90;;;;;;5009552;28;20037;-73
2022/11/10 08:46:19;;;;;;;21.90;15.23;;;14.10;99.90;;;;;;5007859;28;20168;-73
2022/11/10 08:48:45;;;;;;;22.25;15.55;;;14.10;99.90;;;;;;5008090;28;20059;-73
2022/11/10 08:51:10;;;;;;;29.33;16.55;;;14.20;99.90;;;;;;5010450;28;20032;-73
2022/11/10 08:53:36;;;;;;;19.90;13.85;;;14.20;99.90;;;;;;5008979;28;20041;-73
2022/11/10 08:56:02;;;;;;;21.17;14.77;;;14.20;99.90;;;;;;5010112;28;20104;-73
2022/11/10 08:58:27;;;;;;;19.75;14.68;;;14.20;99.90;;;;;;5008691;28;20041;-74
2022/11/10 09:00:53;;;;;;;23.60;15.90;;;14.10;99.90;;;;;;4995872;28;20143;-74
2022/11/10 09:03:21;;;;;;;20.10;15.25;;;14.10;99.90;;;;;;5010941;28;20041;-73
2022/11/10 09:05:48;;;;;;;21.17;14.68;;;14.10;99.90;;;;;;5001257;28;20076;-74
2022/11/10 09:08:14;;;;;;;23.27;15.85;;;14.30;99.90;;;;;;5000767;28;20107;-74
2022/11/10 09:10:49;;;;;;;22.77;15.93;;;14.50;99.90;;;;;;5014270;28;20065;-74
2022/11/10 09:13:16;;;;;;;21.55;14.48;;;14.50;99.90;;;;;;5011421;28;20029;-73
2022/11/10 09:15:42;;;;;;;23.90;14.73;;;14.50;99.90;;;;;;5009858;28;20037;-75
2022/11/10 09:18:10;;;;;;;22.33;15.02;;;14.40;99.90;;;;;;5011604;28;20049;-76
2022/11/10 09:20:37;;;;;;;20.48;14.38;;;14.30;99.90;;;;;;5007268;28;20103;-76
2022/11/10 09:23:04;;;;;;;16.33;13.23;;;14.30;99.90;;;;;;5006499;28;20391;-76
2022/11/10 09:25:29;;;;;;;20.13;14.60;;;14.30;99.90;;;;;;5010327;28;20134;-76
2022/11/10 09:27:55;;;;;;;19.60;14.25;;;14.30;99.90;;;;;;5008720;28;20057;-77
2022/11/10 09:30:21;;;;;;;19.70;14.32;;;14.40;99.90;;;;;;5011389;28;20502;-76
2022/11/10 09:32:52;;;;;;;20.45;14.95;;;14.50;99.90;;;;;;5002492;28;20037;-76
2022/11/10 09:35:18;;;;;;;22.27;14.75;;;14.50;99.90;;;;;;5007601;28;20029;-75
2022/11/10 09:37:44;;;;;;;18.17;13.48;;;14.50;99.90;;;;;;5006031;28;20048;-77
2022/11/10 09:40:20;;;;;;;20.63;14.20;;;14.40;99.90;;;;;;4999476;28;20033;-76
2022/11/10 09:42:47;;;;;;;22.30;15.63;;;14.40;99.90;;;;;;5006928;28;20048;-76
2022/11/10 09:45:25;;;;;;;18.25;13.32;;;14.40;99.90;;;;;;4988345;28;20532;-76
2022/11/10 09:48:16;;;;;;;19.05;14.27;;;14.50;99.90;;;;;;5005846;28;20137;-76
2022/11/10 09:50:55;;;;;;;20.88;14.70;;;14.40;99.90;;;;;;5000116;28;20092;-76
2022/11/10 09:53:35;;;;;;;19.27;14.77;;;14.50;99.90;;;;;;5006278;28;20042;-76
2022/11/10 09:56:06;;;;;;;20.70;15.15;;;14.50;99.90;;;;;;4977629;28;20042;-76
2022/11/10 09:58:39;;;;;;;19.73;14.40;;;14.50;99.90;;;;;;5002914;28;20052;-75
2022/11/10 10:01:33;;;;;;;18.83;14.27;;;14.50;99.90;;;;;;4984378;28;20033;-76
2022/11/10 10:04:11;;;;;;;19.27;14.65;;;14.30;99.90;;;;;;5006146;28;20620;-76
2022/11/10 10:06:49;;;;;;;20.85;15.18;;;14.30;99.90;;;;;;5006258;28;20553;-76
2022/11/10 10:09:34;;;;;;;22.08;14.05;;;14.30;99.90;;;;;;5004930;28;20149;-75
2022/11/10 10:12:06;;;;;;;19.70;15.05;;;14.40;99.90;;;;;;4989153;28;20117;-75
2022/11/10 10:14:56;;;;;;;19.30;14.05;;;14.50;99.90;;;;;;4997555;28;20037;-76
2022/11/10 10:17:33;;;;;;;19.15;14.75;;;14.60;99.90;;;;;;4996638;28;20087;-76
2022/11/10 10:20:13;;;;;;;20.55;14.40;;;14.60;99.90;;;;;;4996539;28;20057;-77
2022/11/10 10:23:03;;;;;;;19.65;13.80;;;14.60;99.90;;;;;;4994829;28;20038;-76
2022/11/10 10:25:30;;;;;;;20.52;14.23;;;14.60;99.90;;;;;;5003552;28;20038;-76
2022/11/10 10:28:04;;;;;;;17.90;13.75;;;14.60;99.90;;;;;;5003971;28;20033;-76
2022/11/10 10:30:30;;;;;;;18.17;13.40;;;14.60;99.90;;;;;;5001196;28;20041;-74
2022/11/10 10:33:20;;;;;;;20.05;13.60;;;14.60;99.90;;;;;;5005075;28;20033;-73
2022/11/10 10:35:48;;;;;;;18.35;14.25;;;14.50;99.90;;;;;;5002638;28;20046;-74
2022/11/10 10:38:33;;;;;;;19.17;13.77;;;14.50;99.90;;;;;;4999488;28;20050;-74
2022/11/10 10:41:35;;;;;;;19.17;14.43;;;14.50;99.90;;;;;;5010934;28;20486;-74
2022/11/10 10:44:15;;;;;;;19.42;13.55;;;14.50;99.90;;;;;;4989614;28;21064;-74
2022/11/10 10:46:59;;;;;;;18.20;12.85;;;14.50;99.90;;;;;;5004658;28;20041;-73
2022/11/10 10:49:29;;;;;;;17.60;13.10;;;14.40;99.90;;;;;;4995531;28;20036;-74
2022/11/10 10:52:23;;;;;;;17.00;12.00;;;14.40;99.90;;;;;;5006527;28;20037;-74
2022/11/10 10:54:59;;;;;;;17.85;13.07;;;14.40;99.90;;;;;;5000103;28;20152;-74
2022/11/10 10:57:28;;;;;;;17.58;11.90;;;14.40;99.90;;;;;;4995487;28;20509;-73
2022/11/10 11:00:17;;;;;;;16.35;12.25;;;14.30;99.90;;;;;;5004412;28;20336;-74
2022/11/10 11:02:42;;;;;;;17.13;13.07;;;14.30;99.90;;;;;;4999914;28;20034;-74
2022/11/10 11:05:18;;;;;;;17.10;11.65;;;14.20;99.90;;;;;;4996168;28;20069;-70
2022/11/10 11:07:58;;;;;;;13.95;10.57;;;14.20;99.90;;;;;;5001644;28;20048;-73
2022/11/10 11:10:29;;;;;;;15.35;11.05;;;14.20;99.90;;;;;;5005199;28;20348;-77
2022/11/10 11:13:12;;;;;;;17.20;11.80;;;14.20;99.90;;;;;;5002784;28;20028;-77
2022/11/10 11:15:38;;;;;;;18.70;12.27;;;14.10;99.90;;;;;;5008236;28;20073;-82
2022/11/10 11:18:14;;;;;;;23.40;13.30;;;14.10;99.90;;;;;;5004993;28;20165;-81
2022/11/10 11:20:58;;;;;;;16.80;12.43;;;13.90;99.90;;;;;;5011349;28;20042;-78
2022/11/10 11:23:37;;;;;;;19.55;13.25;;;13.90;99.90;;;;;;5006092;28;20182;-78
2022/11/10 11:26:23;;;;;;;15.65;11.63;;;13.80;99.90;;;;;;5002645;28;20077;-79
2022/11/10 11:29:00;;;;;;;16.85;12.15;;;13.90;99.90;;;;;;5005183;28;20049;-73
2022/11/10 11:31:40;;;;;;;16.38;12.35;;;14.00;99.90;;;;;;5005828;28;20060;-73
2022/11/10 11:34:16;;;;;;;20.45;13.63;;;13.90;99.90;;;;;;5003675;28;20043;-75
2022/11/10 11:36:42;;;;;;;21.92;14.95;;;13.70;99.90;;;;;;5014193;28;20049;-74
2022/11/10 11:39:34;;;;;;;22.63;15.43;;;13.50;99.90;;;;;;5002597;28;20411;-73
2022/11/10 11:42:24;;;;;;;22.83;15.20;;;13.20;99.90;;;;;;5003247;28;20124;-73
2022/11/10 11:45:27;;;;;;;20.52;14.77;;;13.00;99.90;;;;;;5003922;28;20037;-73
2022/11/10 11:48:06;;;;;;;23.05;16.13;;;12.90;99.90;;;;;;5001631;28;20060;-72
2022/11/10 11:50:51;;;;;;;20.25;14.80;;;12.80;99.90;;;;;;5006295;28;20064;-73
2022/11/10 11:53:41;;;;;;;21.15;14.82;;;12.80;99.90;;;;;;5000877;28;20034;-73
2022/11/10 11:56:24;;;;;;;22.58;14.95;;;12.80;99.90;;;;;;5000888;28;20037;-75
2022/11/10 11:59:02;;;;;;;21.63;14.88;;;12.80;99.90;;;;;;5000182;28;20046;-74
2022/11/10 12:01:28;;;;;;;19.83;13.75;;;12.80;99.90;;;;;;5006073;28;20034;-75
2022/11/10 12:04:28;;;;;;;21.80;14.75;;;12.70;99.90;;;;;;5004075;28;20189;-75
2022/11/10 12:07:27;;;;;;;20.88;14.27;;;12.70;99.90;;;;;;5008647;28;20546;-73
2022/11/10 12:10:14;;;;;;;22.13;15.13;;;12.60;99.90;;;;;;4972715;28;20051;-73
2022/11/10 12:13:18;;;;;;;24.08;15.32;;;12.60;99.90;;;;;;4988136;28;20100;-74
2022/11/10 12:15:47;;;;;;;26.55;17.08;;;12.60;99.90;;;;;;4988908;28;20064;-73
2022/11/10 12:18:26;;;;;;;23.63;16.58;;;12.50;99.90;;;;;;4985024;28;20040;-74
2022/11/10 12:20:58;;;;;;;26.58;17.02;;;12.50;99.90;;;;;;4995053;28;20037;-74
2022/11/10 12:23:36;;;;;;;21.67;15.38;;;12.50;99.90;;;;;;5002917;28;20164;-76
2022/11/10 12:26:23;;;;;;;25.00;15.35;;;12.50;99.90;;;;;;5001861;28;20498;-73
2022/11/10 12:29:14;;;;;;;24.88;15.70;;;12.60;99.90;;;;;;4998132;28;20073;-75
2022/11/10 12:31:44;;;;;;;25.35;16.15;;;12.50;99.90;;;;;;4963843;28;20049;-75
2022/11/10 12:34:25;;;;;;;30.63;18.17;;;12.50;99.90;;;;;;4991233;28;20126;-74
2022/11/10 12:36:51;;;;;;;27.55;16.85;;;12.40;99.90;;;;;;4989392;28;20041;-73
2022/11/10 12:39:23;;;;;;;27.27;17.10;;;12.40;99.90;;;;;;5002168;28;20069;-73
2022/11/10 12:41:56;;;;;;;32.03;18.48;;;12.40;99.90;;;;;;4999832;28;20039;-73
2022/11/10 12:44:35;;;;;;;27.52;18.33;;;12.40;99.90;;;;;;5001367;28;21921;-73
2022/11/10 12:47:05;;;;;;;31.73;20.40;;;12.40;99.90;;;;;;4995303;28;20049;-74
2022/11/10 12:49:47;;;;;;;28.33;18.75;;;12.30;99.90;;;;;;4982222;28;20567;-72
2022/11/10 12:52:30;;;;;;;28.05;18.17;;;12.30;99.90;;;;;;4985822;28;20061;-73
2022/11/10 12:54:56;;;;;;;30.08;18.35;;;12.30;99.90;;;;;;5001874;28;20040;-72
2022/11/10 12:57:26;;;;;;;28.95;18.52;;;12.20;99.90;;;;;;4997092;28;20104;-74
2022/11/10 13:00:07;;;;;;;30.73;19.10;;;12.20;99.90;;;;;;5000321;28;20041;-74
2022/11/10 13:02:41;;;;;;;32.15;19.67;;;12.20;99.90;;;;;;4998093;28;20048;-75